createdAt,value
2023-03-15T00:02:10.615Z,4.97
2023-03-15T00:04:38.332Z,9.60
2023-03-15T00:07:06.082Z,2.83
2023-03-15T00:09:33.681Z,3.63
2023-03-15T00:12:01.276Z,6.07
2023-03-15T00:14:28.841Z,2.87
2023-03-15T00:16:56.492Z,2.93
2023-03-15T00:19:24.107Z,2.70
2023-03-15T00:21:51.672Z,2.80
2023-03-15T00:24:19.251Z,2.17
2023-03-15T00:26:46.825Z,2.30
2023-03-15T00:29:14.447Z,2.60
2023-03-15T00:31:41.985Z,2.60
2023-03-15T00:34:09.545Z,2.80
2023-03-15T00:36:37.686Z,2.70
2023-03-15T00:39:05.663Z,2.60
2023-03-15T00:41:33.230Z,3.00
2023-03-15T00:44:00.857Z,2.97
2023-03-15T00:46:28.479Z,2.47
2023-03-15T00:48:56.341Z,3.33
2023-03-15T00:51:24.661Z,2.50
2023-03-15T00:53:53.517Z,3.07
2023-03-15T00:56:23.598Z,2.73
2023-03-15T00:58:55.083Z,2.33
2023-03-15T01:01:26.160Z,2.90
2023-03-15T01:03:53.811Z,2.77
2023-03-15T01:06:23.986Z,2.63
2023-03-15T01:08:52.071Z,2.80
2023-03-15T01:11:24.304Z,2.73
2023-03-15T01:13:53.028Z,2.70
2023-03-15T01:16:21.157Z,2.87
2023-03-15T01:18:49.126Z,2.83
2023-03-15T01:21:17.035Z,2.27
2023-03-15T01:23:44.638Z,2.80
2023-03-15T01:26:14.567Z,3.03
2023-03-15T01:28:42.366Z,3.00
2023-03-15T01:31:19.802Z,3.17
2023-03-15T01:33:47.879Z,3.10
2023-03-15T01:36:16.107Z,2.80
2023-03-15T01:38:44.171Z,3.20
2023-03-15T01:41:13.873Z,3.37
2023-03-15T01:43:47.384Z,3.03
2023-03-15T01:46:19.969Z,2.27
2023-03-15T01:49:14.270Z,3.07
2023-03-15T01:51:55.516Z,3.10
2023-03-15T01:54:30.213Z,3.50
2023-03-15T01:57:15.517Z,3.10
2023-03-15T01:59:52.228Z,3.10
2023-03-15T02:02:23.070Z,2.93
2023-03-15T02:05:00.208Z,2.80
2023-03-15T02:07:34.499Z,2.90
2023-03-15T02:10:06.668Z,2.77
2023-03-15T02:12:40.533Z,2.90
2023-03-15T02:15:09.368Z,4.00
2023-03-15T02:17:39.825Z,3.03
2023-03-15T02:20:35.212Z,3.87
2023-03-15T02:23:09.376Z,3.90
2023-03-15T02:25:50.293Z,3.80
2023-03-15T02:28:19.679Z,3.80
2023-03-15T02:30:48.509Z,3.87
2023-03-15T02:33:57.379Z,3.90
2023-03-15T02:36:29.593Z,3.80
2023-03-15T02:38:57.670Z,3.53
2023-03-15T02:41:30.641Z,3.67
2023-03-15T02:44:08.783Z,3.73
2023-03-15T02:46:37.750Z,4.20
2023-03-15T02:49:07.888Z,5.07
2023-03-15T02:51:35.501Z,4.80
2023-03-15T02:54:03.109Z,5.30
2023-03-15T02:56:33.424Z,5.10
2023-03-15T02:59:01.232Z,5.87
2023-03-15T03:01:28.863Z,5.10
2023-03-15T03:03:56.517Z,5.63
2023-03-15T03:06:24.303Z,5.23
2023-03-15T03:08:51.937Z,5.70
2023-03-15T03:11:19.556Z,5.90
2023-03-15T03:13:47.310Z,6.97
2023-03-15T03:16:15.063Z,5.57
2023-03-15T03:18:42.695Z,6.50
2023-03-15T03:21:10.369Z,5.73
2023-03-15T03:23:38.071Z,6.37
2023-03-15T03:26:18.734Z,5.97
2023-03-15T03:28:47.638Z,5.80
2023-03-15T03:31:27.095Z,6.17
2023-03-15T03:33:56.151Z,5.90
2023-03-15T03:36:25.103Z,4.90
2023-03-15T03:38:53.786Z,4.60
2023-03-15T03:41:21.405Z,4.53
2023-03-15T03:43:49.113Z,3.73
2023-03-15T03:46:16.798Z,3.90
2023-03-15T03:48:44.504Z,4.53
2023-03-15T03:51:12.065Z,4.40
2023-03-15T03:53:39.655Z,3.83
2023-03-15T03:56:08.494Z,3.63
2023-03-15T03:58:36.100Z,3.17
2023-03-15T04:01:04.929Z,3.53
2023-03-15T04:03:33.222Z,3.30
2023-03-15T04:06:01.346Z,3.57
2023-03-15T04:08:28.945Z,2.93
2023-03-15T04:10:57.907Z,4.00
2023-03-15T04:13:42.164Z,3.17
2023-03-15T04:16:09.839Z,3.43
2023-03-15T04:18:37.443Z,3.37
2023-03-15T04:21:05.189Z,3.07
2023-03-15T04:23:34.504Z,3.07
2023-03-15T04:26:02.127Z,3.37
2023-03-15T04:28:30.287Z,3.17
2023-03-15T04:30:58.879Z,3.40
2023-03-15T04:33:26.673Z,3.17
2023-03-15T04:35:54.413Z,3.00
2023-03-15T04:38:26.644Z,3.37
2023-03-15T04:40:55.071Z,3.47
2023-03-15T04:43:24.445Z,3.07
2023-03-15T04:45:52.125Z,3.20
2023-03-15T04:48:19.938Z,3.20
2023-03-15T04:50:47.584Z,3.63
2023-03-15T04:53:15.179Z,3.47
2023-03-15T04:55:42.757Z,3.27
2023-03-15T04:58:12.621Z,3.53
2023-03-15T05:00:40.307Z,3.37
2023-03-15T05:03:07.991Z,3.97
2023-03-15T05:05:35.611Z,3.50
2023-03-15T05:08:03.616Z,3.50
2023-03-15T05:10:33.696Z,3.37
2023-03-15T05:13:01.326Z,3.20
2023-03-15T05:15:29.011Z,3.20
2023-03-15T05:17:58.934Z,3.10
2023-03-15T05:20:26.630Z,3.00
2023-03-15T05:22:56.926Z,3.20
2023-03-15T05:25:27.229Z,3.10
2023-03-15T05:27:55.691Z,2.60
2023-03-15T05:30:23.361Z,3.30
2023-03-15T05:32:51.527Z,3.23
2023-03-15T05:35:22.228Z,3.40
2023-03-15T05:37:50.099Z,2.93
2023-03-15T05:40:29.743Z,3.13
2023-03-15T05:42:57.332Z,3.23
2023-03-15T05:45:25.057Z,3.90
2023-03-15T05:47:52.672Z,3.57
2023-03-15T05:50:20.296Z,3.97
2023-03-15T05:52:49.729Z,3.77
2023-03-15T05:55:17.576Z,5.00
2023-03-15T05:57:45.217Z,3.63
2023-03-15T06:00:16.633Z,4.27
2023-03-15T06:02:45.868Z,4.20
2023-03-15T06:05:13.818Z,4.47
2023-03-15T06:07:41.625Z,4.23
2023-03-15T06:10:11.158Z,3.20
2023-03-15T06:12:41.940Z,4.67
2023-03-15T06:15:10.071Z,4.03
2023-03-15T06:17:37.686Z,3.93
2023-03-15T06:20:05.768Z,4.20
2023-03-15T06:22:33.917Z,4.53
2023-03-15T06:25:03.398Z,4.80
2023-03-15T06:27:30.936Z,4.00
2023-03-15T06:29:58.605Z,4.17
2023-03-15T06:32:26.286Z,4.40
2023-03-15T06:34:56.909Z,4.03
2023-03-15T06:37:34.770Z,4.80
2023-03-15T06:40:10.773Z,4.23
2023-03-15T06:42:39.607Z,3.87
2023-03-15T06:45:09.677Z,4.67
2023-03-15T06:47:37.751Z,4.10
2023-03-15T06:50:06.293Z,4.80
2023-03-15T06:52:35.057Z,4.50
2023-03-15T06:55:02.744Z,4.03
2023-03-15T06:57:30.406Z,4.50
2023-03-15T06:59:58.024Z,4.17
2023-03-15T07:02:25.696Z,4.50
2023-03-15T07:04:53.371Z,4.43
2023-03-15T07:07:20.986Z,3.80
2023-03-15T07:09:48.633Z,4.37
2023-03-15T07:12:17.689Z,3.90
2023-03-15T07:14:46.555Z,4.23
2023-03-15T07:17:14.145Z,4.30
2023-03-15T07:19:55.418Z,4.10
2023-03-15T07:22:24.430Z,6.30
2023-03-15T07:24:52.442Z,4.80
2023-03-15T07:27:20.004Z,4.43
2023-03-15T07:29:49.730Z,4.77
2023-03-15T07:32:17.941Z,4.37
2023-03-15T07:34:45.542Z,3.90
2023-03-15T07:37:13.274Z,4.23
2023-03-15T07:39:41.232Z,3.70
2023-03-15T07:42:09.150Z,3.03
2023-03-15T07:44:39.300Z,3.73
2023-03-15T07:47:07.098Z,3.60
2023-03-15T07:49:34.739Z,3.50
2023-03-15T07:52:02.605Z,3.83
2023-03-15T07:54:31.680Z,12.13
2023-03-15T07:56:59.604Z,4.70
2023-03-15T07:59:27.263Z,3.63
2023-03-15T08:01:55.401Z,3.50
2023-03-15T08:04:23.025Z,3.20
2023-03-15T08:06:50.575Z,3.40
2023-03-15T08:09:18.164Z,5.63
2023-03-15T08:11:45.844Z,2.60
2023-03-15T08:14:14.040Z,2.70
2023-03-15T08:16:41.775Z,2.70
2023-03-15T08:19:10.308Z,3.10
2023-03-15T08:21:37.950Z,3.00
2023-03-15T08:24:05.942Z,3.17
2023-03-15T08:26:33.645Z,3.43
2023-03-15T08:29:01.226Z,3.43
2023-03-15T08:31:28.949Z,3.20
2023-03-15T08:33:59.732Z,2.90
2023-03-15T08:36:27.453Z,2.90
2023-03-15T08:38:55.151Z,3.43
2023-03-15T08:41:23.114Z,2.70
2023-03-15T08:43:50.672Z,2.70
2023-03-15T08:46:18.344Z,2.27
2023-03-15T08:48:49.066Z,2.80
2023-03-15T08:51:22.394Z,2.34
2023-03-15T08:54:03.864Z,3.08
2023-03-15T08:56:32.494Z,2.20
2023-03-15T08:59:00.339Z,2.17
2023-03-15T09:01:30.201Z,2.40
2023-03-15T09:03:57.885Z,2.43
2023-03-15T09:06:25.492Z,2.10
2023-03-15T09:08:56.206Z,1.57
2023-03-15T09:11:23.842Z,1.60
2023-03-15T09:13:51.458Z,1.50
2023-03-15T09:16:19.426Z,1.63
2023-03-15T09:18:52.925Z,1.23
2023-03-15T09:21:20.556Z,1.40
2023-03-15T09:23:48.184Z,1.40
2023-03-15T09:26:18.453Z,1.60
2023-03-15T09:28:46.062Z,2.00
2023-03-15T09:31:13.747Z,1.83
2023-03-15T09:33:41.577Z,2.10
2023-03-15T09:36:11.276Z,1.87
2023-03-15T09:38:39.382Z,1.23
2023-03-15T09:41:51.207Z,1.46
2023-03-15T09:44:27.863Z,2.00
2023-03-15T09:47:06.022Z,2.30
2023-03-15T09:49:39.729Z,1.33
2023-03-15T09:52:25.749Z,1.10
2023-03-15T09:55:03.114Z,1.40
2023-03-15T09:57:41.612Z,1.30
2023-03-15T10:00:14.795Z,1.23
2023-03-15T10:03:06.835Z,1.70
2023-03-15T10:05:55.597Z,1.00
2023-03-15T10:08:24.427Z,1.03
2023-03-15T10:11:04.002Z,1.20
2023-03-15T10:13:51.509Z,1.10
2023-03-15T10:16:25.777Z,1.20
2023-03-15T10:18:57.560Z,0.97
2023-03-15T10:21:41.939Z,1.00
2023-03-15T10:24:37.077Z,1.20
2023-03-15T10:27:21.368Z,1.40
2023-03-15T10:29:52.151Z,1.00
2023-03-15T10:32:25.657Z,1.47
2023-03-15T10:34:56.870Z,1.07
2023-03-15T10:37:26.026Z,1.13
2023-03-15T10:39:59.137Z,1.07
2023-03-15T10:42:32.160Z,0.90
2023-03-15T10:45:20.097Z,1.20
2023-03-15T10:47:57.581Z,1.07
2023-03-15T10:50:31.101Z,0.87
2023-03-15T10:53:01.239Z,0.70
2023-03-15T10:55:44.206Z,0.63
2023-03-15T10:58:27.596Z,0.73
2023-03-15T11:01:09.952Z,0.60
2023-03-15T11:03:38.491Z,0.80
2023-03-15T11:06:21.098Z,0.90
2023-03-15T11:08:48.714Z,0.60
2023-03-15T11:11:16.403Z,0.63
2023-03-15T11:13:59.768Z,0.70
2023-03-15T11:16:34.754Z,0.87
2023-03-15T11:19:03.723Z,0.70
2023-03-15T11:21:33.799Z,0.97
2023-03-15T11:24:05.918Z,0.67
2023-03-15T11:26:36.927Z,0.70
2023-03-15T11:29:06.218Z,0.80
2023-03-15T11:31:35.860Z,1.07
2023-03-15T11:34:06.495Z,1.10
2023-03-15T11:36:40.129Z,1.17
2023-03-15T11:39:16.119Z,1.00
2023-03-15T11:42:02.625Z,0.90
2023-03-15T11:44:43.999Z,1.00
2023-03-15T11:47:41.087Z,0.90
2023-03-15T11:50:14.566Z,1.03
2023-03-15T11:52:43.062Z,0.90
2023-03-15T11:55:27.120Z,0.90
2023-03-15T11:57:57.819Z,0.90
2023-03-15T12:00:31.995Z,0.87
2023-03-15T12:03:20.987Z,1.00
2023-03-15T12:05:59.320Z,1.10
2023-03-15T12:08:35.389Z,1.13
2023-03-15T12:11:30.373Z,1.37
2023-03-15T12:14:01.004Z,1.80
2023-03-15T12:16:30.500Z,1.50
2023-03-15T12:18:59.717Z,1.70
2023-03-15T12:21:50.828Z,1.83
2023-03-15T12:24:29.572Z,1.90
2023-03-15T12:27:06.079Z,2.07
2023-03-15T12:29:36.184Z,2.80
2023-03-15T12:32:03.776Z,2.77
2023-03-15T12:34:53.481Z,3.03
2023-03-15T12:37:23.113Z,3.03
2023-03-15T12:40:22.617Z,2.47
2023-03-15T12:42:50.514Z,1.90
2023-03-15T12:45:18.240Z,2.00
2023-03-15T12:47:52.100Z,1.50
2023-03-15T12:50:44.748Z,1.70
2023-03-15T12:53:38.237Z,1.70
2023-03-15T12:56:18.141Z,1.37
2023-03-15T12:58:54.182Z,1.02
2023-03-15T13:01:25.621Z,1.13
2023-03-15T13:03:56.514Z,1.63
2023-03-15T13:06:45.192Z,0.90
2023-03-15T13:09:23.303Z,1.30
2023-03-15T13:12:00.271Z,1.20
2023-03-15T13:14:49.662Z,1.13
2023-03-15T13:17:20.792Z,0.90
2023-03-15T13:20:13.621Z,1.00
2023-03-15T13:22:58.786Z,0.70
2023-03-15T13:25:38.020Z,0.85
2023-03-15T13:28:37.104Z,0.60
2023-03-15T13:31:24.110Z,1.38
2023-03-15T13:33:57.524Z,0.80
2023-03-15T13:36:46.607Z,1.05
2023-03-15T13:39:26.322Z,1.10
2023-03-15T13:41:57.962Z,1.63
2023-03-15T13:44:26.660Z,0.90
2023-03-15T13:46:54.495Z,0.70
2023-03-15T13:49:23.210Z,0.97
2023-03-15T13:51:53.217Z,1.03
2023-03-15T13:54:30.416Z,0.80
2023-03-15T13:57:24.996Z,0.93
2023-03-15T14:00:23.931Z,0.93
2023-03-15T14:03:07.818Z,1.30
2023-03-15T14:05:46.141Z,0.90
2023-03-15T14:08:32.596Z,0.90
2023-03-15T14:11:32.625Z,1.20
2023-03-15T14:14:05.951Z,2.10
2023-03-15T14:17:01.172Z,1.13
2023-03-15T14:19:33.273Z,1.40
2023-03-15T14:22:04.743Z,2.40
2023-03-15T14:24:48.632Z,2.00
2023-03-15T14:27:23.178Z,1.55
2023-03-15T14:29:57.713Z,1.30
2023-03-15T14:32:32.281Z,1.23
2023-03-15T14:35:23.779Z,1.40
2023-03-15T14:38:08.341Z,1.30
2023-03-15T14:40:38.848Z,1.10
2023-03-15T14:43:08.273Z,1.08
2023-03-15T14:45:40.874Z,1.60
2023-03-15T14:48:22.242Z,1.88
2023-03-15T14:50:52.047Z,4.00
2023-03-15T14:53:23.872Z,1.60
2023-03-15T14:55:53.171Z,1.48
2023-03-15T14:58:23.347Z,1.60
2023-03-15T15:00:54.065Z,1.40
2023-03-15T15:06:31.118Z,1.00
2023-03-15T15:09:02.131Z,1.20
2023-03-15T15:11:29.864Z,1.00
2023-03-15T15:13:58.550Z,1.00
2023-03-15T15:16:26.265Z,1.20
2023-03-15T15:18:53.916Z,1.30
2023-03-15T15:21:31.242Z,1.58
2023-03-15T15:24:02.634Z,1.00
2023-03-15T15:26:31.901Z,1.60
2023-03-15T15:29:00.752Z,1.23
2023-03-15T15:31:33.594Z,1.13
2023-03-15T15:34:01.813Z,1.38
2023-03-15T15:36:35.823Z,1.30
2023-03-15T15:39:07.158Z,1.20
2023-03-15T15:41:35.411Z,1.50
2023-03-15T15:44:03.002Z,1.17
2023-03-15T15:46:30.680Z,1.35
2023-03-15T15:48:58.827Z,1.15
2023-03-15T15:51:41.904Z,1.10
2023-03-15T15:54:15.361Z,1.48
2023-03-15T15:56:49.397Z,1.42
2023-03-15T15:59:18.300Z,1.38
2023-03-15T16:01:59.505Z,1.25
2023-03-15T16:04:28.480Z,1.13
2023-03-15T16:06:58.827Z,1.50
2023-03-15T16:09:28.627Z,1.45
2023-03-15T16:11:56.197Z,1.20
2023-03-15T16:14:23.776Z,1.40
2023-03-15T16:16:51.361Z,1.20
2023-03-15T16:19:19.024Z,1.80
2023-03-15T16:21:49.723Z,1.30
2023-03-15T16:24:30.706Z,1.30
2023-03-15T16:27:04.355Z,1.80
2023-03-15T16:29:43.208Z,1.50
2023-03-15T16:32:32.866Z,1.10
2023-03-15T16:35:15.316Z,1.23
2023-03-15T16:37:45.673Z,1.07
2023-03-15T16:40:26.858Z,1.20
2023-03-15T16:42:55.231Z,1.23
2023-03-15T16:45:23.566Z,1.10
2023-03-15T16:47:51.468Z,1.33
2023-03-15T16:50:19.690Z,1.27
2023-03-15T16:52:49.402Z,1.17
2023-03-15T16:55:23.930Z,1.47
2023-03-15T16:57:51.773Z,3.70
2023-03-15T17:00:20.667Z,1.57
2023-03-15T17:02:51.548Z,1.20
2023-03-15T17:05:20.899Z,1.50
2023-03-15T17:07:52.639Z,1.17
2023-03-15T17:10:23.624Z,1.30
2023-03-15T17:12:56.180Z,1.17
2023-03-15T17:15:25.640Z,1.30
2023-03-15T17:17:57.603Z,1.10
2023-03-15T17:20:27.364Z,1.30
2023-03-15T17:23:03.973Z,2.20
2023-03-15T17:25:33.855Z,2.37
2023-03-15T17:28:01.588Z,1.57
2023-03-15T17:30:31.965Z,1.70
2023-03-15T17:33:00.694Z,1.37
2023-03-15T17:35:32.042Z,2.00
2023-03-15T17:38:01.493Z,1.50
2023-03-15T17:40:31.686Z,1.53
2023-03-15T17:43:01.622Z,6.53
2023-03-15T17:45:32.050Z,7.07
2023-03-15T17:48:00.722Z,4.90
2023-03-15T17:50:31.069Z,3.70
2023-03-15T17:53:03.438Z,2.10
2023-03-15T17:55:35.141Z,2.10
2023-03-15T17:58:09.305Z,1.63
2023-03-15T18:00:37.547Z,2.13
2023-03-15T18:03:05.281Z,2.17
2023-03-15T18:05:32.959Z,2.30
2023-03-15T18:08:00.841Z,3.03
2023-03-15T18:10:36.527Z,4.70
2023-03-15T18:13:04.533Z,6.47
2023-03-15T18:15:32.172Z,6.47
2023-03-15T18:17:59.890Z,3.50
2023-03-15T18:20:28.582Z,2.83
2023-03-15T18:22:56.181Z,2.57
2023-03-15T18:25:27.235Z,3.00
2023-03-15T18:27:55.404Z,2.40
2023-03-15T18:30:25.567Z,2.73
2023-03-15T18:32:53.961Z,3.10
2023-03-15T18:35:28.975Z,3.80
2023-03-15T18:37:57.521Z,4.00
2023-03-15T18:40:29.006Z,3.43
2023-03-15T18:42:57.970Z,3.37
2023-03-15T18:45:34.988Z,2.90
2023-03-15T18:48:03.385Z,3.00
2023-03-15T18:50:31.791Z,2.90
2023-03-15T18:52:59.785Z,5.80
2023-03-15T18:55:27.513Z,5.30
2023-03-15T18:57:55.405Z,5.63
2023-03-15T19:00:26.849Z,6.50
2023-03-15T19:02:59.206Z,4.70
2023-03-15T19:05:28.407Z,4.80
2023-03-15T19:07:56.146Z,4.20
2023-03-15T19:10:24.525Z,4.40
2023-03-15T19:12:53.247Z,5.50
2023-03-15T19:15:22.404Z,5.57
2023-03-15T19:17:52.114Z,5.73
2023-03-15T19:20:24.500Z,6.30
2023-03-15T19:22:52.978Z,7.67
2023-03-15T19:25:21.158Z,6.80
2023-03-15T19:27:49.011Z,7.40
2023-03-15T19:30:20.835Z,7.90
2023-03-15T19:32:50.099Z,7.90
2023-03-15T19:35:19.424Z,7.20
2023-03-15T19:37:48.448Z,8.00
2023-03-15T19:40:17.060Z,8.03
2023-03-15T19:42:46.434Z,7.50
2023-03-15T19:45:14.770Z,7.63
2023-03-15T19:47:42.509Z,8.07
2023-03-15T19:50:12.190Z,6.20
2023-03-15T19:52:45.717Z,5.83
2023-03-15T19:55:15.623Z,6.67
2023-03-15T19:57:43.972Z,7.70
2023-03-15T20:00:15.888Z,7.27
2023-03-15T20:02:44.833Z,7.50
2023-03-15T20:05:19.171Z,8.30
2023-03-15T20:07:48.683Z,8.17
2023-03-15T20:10:16.668Z,8.20
2023-03-15T20:12:45.479Z,7.97
2023-03-15T20:15:16.148Z,8.60
2023-03-15T20:17:44.504Z,9.20
2023-03-15T20:20:13.748Z,10.77
2023-03-15T20:22:43.450Z,9.87
2023-03-15T20:25:13.271Z,9.83
2023-03-15T20:27:41.899Z,7.73
2023-03-15T20:30:12.761Z,6.83
2023-03-15T20:32:40.885Z,7.37
2023-03-15T20:35:09.542Z,6.27
2023-03-15T20:37:40.470Z,9.10
2023-03-15T20:40:11.536Z,6.77
2023-03-15T20:42:39.432Z,6.07
2023-03-15T20:45:09.573Z,5.77
2023-03-15T20:47:38.119Z,5.77
2023-03-15T20:50:07.568Z,5.33
2023-03-15T20:52:35.312Z,5.70
2023-03-15T20:55:03.706Z,5.90
2023-03-15T20:57:31.336Z,6.47
2023-03-15T20:59:59.505Z,6.17
2023-03-15T21:02:27.129Z,6.13
2023-03-15T21:04:54.713Z,4.97
2023-03-15T21:07:22.299Z,4.77
2023-03-15T21:09:49.934Z,5.23
2023-03-15T21:12:19.259Z,5.90
2023-03-15T21:14:46.845Z,5.43
2023-03-15T21:17:14.412Z,6.00
2023-03-15T21:19:42.043Z,5.73
2023-03-15T21:22:09.901Z,5.10
2023-03-15T21:24:49.361Z,4.80
2023-03-15T21:27:22.274Z,5.07
2023-03-15T21:29:49.869Z,4.40
2023-03-15T21:32:17.536Z,4.70
2023-03-15T21:34:45.120Z,4.60
2023-03-15T21:37:12.865Z,5.17
2023-03-15T21:39:40.544Z,5.07
2023-03-15T21:42:08.165Z,5.57
2023-03-15T21:44:37.373Z,4.93
2023-03-15T21:47:06.227Z,5.50
2023-03-15T21:49:33.826Z,5.73
2023-03-15T21:52:02.463Z,5.67
2023-03-15T21:54:30.186Z,6.03
2023-03-15T21:56:57.793Z,6.17
2023-03-15T21:59:27.909Z,5.60
2023-03-15T22:01:57.099Z,6.10
2023-03-15T22:04:25.060Z,6.13
2023-03-15T22:06:53.653Z,5.77
2023-03-15T22:09:23.335Z,6.03
2023-03-15T22:11:51.009Z,6.00
2023-03-15T22:14:18.862Z,6.33
2023-03-15T22:16:46.536Z,8.03
2023-03-15T22:19:14.623Z,8.90
2023-03-15T22:21:43.706Z,6.57
2023-03-15T22:24:11.368Z,10.70
2023-03-15T22:26:38.950Z,12.63
2023-03-15T22:29:06.534Z,9.03
2023-03-15T22:31:34.252Z,8.03
2023-03-15T22:34:04.330Z,7.87
2023-03-15T22:36:35.466Z,7.70
2023-03-15T22:39:03.551Z,7.40
2023-03-15T22:41:31.287Z,7.30
2023-03-15T22:43:58.895Z,8.03
2023-03-15T22:46:27.407Z,8.90
2023-03-15T22:48:55.145Z,8.80
2023-03-15T22:51:22.791Z,9.00
2023-03-15T22:53:50.486Z,7.80
2023-03-15T22:56:18.215Z,8.10
2023-03-15T22:58:47.283Z,8.13
2023-03-15T23:01:14.986Z,7.67
2023-03-15T23:03:42.667Z,7.80
2023-03-15T23:06:11.078Z,6.67
2023-03-15T23:08:38.719Z,7.00
2023-03-15T23:11:06.440Z,6.47
2023-03-15T23:13:34.219Z,7.23
2023-03-15T23:16:05.045Z,5.60
2023-03-15T23:18:35.467Z,5.60
2023-03-15T23:21:12.284Z,5.60
2023-03-15T23:23:42.658Z,6.30
2023-03-15T23:26:12.875Z,5.60
2023-03-15T23:28:40.763Z,6.03
2023-03-15T23:31:08.708Z,5.83
2023-03-15T23:33:36.540Z,5.83
2023-03-15T23:36:06.920Z,5.70
2023-03-15T23:38:34.634Z,5.90
2023-03-15T23:41:02.683Z,5.70
2023-03-15T23:43:30.612Z,6.03
2023-03-15T23:45:59.779Z,6.27
2023-03-15T23:48:27.753Z,6.10
2023-03-15T23:50:58.747Z,6.07
2023-03-15T23:53:26.422Z,6.20
2023-03-15T23:55:54.162Z,5.93
2023-03-15T23:58:22.047Z,5.40
